createdAt,value
2023-11-30T00:00:40.955Z,99888.75
2023-11-30T00:01:42.955Z,99896.75
2023-11-30T00:02:44.957Z,99889.59
2023-11-30T00:03:47.093Z,99895.34
2023-11-30T00:04:49.118Z,99903.00
2023-11-30T00:05:51.125Z,99904.66
2023-11-30T00:06:53.108Z,99896.06
2023-11-30T00:07:55.086Z,99903.81
2023-11-30T00:08:58.624Z,99900.47
2023-11-30T00:10:00.707Z,99904.31
2023-11-30T00:11:06.389Z,99898.81
2023-11-30T00:12:08.413Z,99906.78
2023-11-30T00:13:10.416Z,99909.44
2023-11-30T00:14:12.437Z,99906.91
2023-11-30T00:15:14.588Z,99907.75
2023-11-30T00:16:16.624Z,99906.69
2023-11-30T00:17:18.616Z,99914.94
2023-11-30T00:18:20.682Z,99911.13
2023-11-30T00:19:22.769Z,99910.03
2023-11-30T00:20:24.773Z,99913.59
2023-11-30T00:21:26.796Z,99917.09
2023-11-30T00:22:28.793Z,99918.75
2023-11-30T00:23:30.800Z,99911.59
2023-11-30T00:24:32.796Z,99920.91
2023-11-30T00:25:34.838Z,99915.41
2023-11-30T00:26:36.833Z,99913.72
2023-11-30T00:27:38.838Z,99908.84
2023-11-30T00:28:40.820Z,99906.09
2023-11-30T00:29:42.820Z,99914.34
2023-11-30T00:30:44.812Z,99915.66
2023-11-30T00:31:46.817Z,99918.88
2023-11-30T00:32:48.869Z,99916.81
2023-11-30T00:33:50.944Z,99920.19
2023-11-30T00:34:52.979Z,99915.16
2023-11-30T00:35:55.062Z,99914.19
2023-11-30T00:36:57.097Z,99913.38
2023-11-30T00:37:59.081Z,99921.63
2023-11-30T00:39:01.130Z,99921.00
2023-11-30T00:40:05.057Z,99916.56
2023-11-30T00:41:07.370Z,99923.38
2023-11-30T00:42:09.560Z,99917.03
2023-11-30T00:43:11.726Z,99928.03
2023-11-30T00:44:13.739Z,99914.53
2023-11-30T00:45:15.865Z,99930.44
2023-11-30T00:46:18.017Z,99923.25
2023-11-30T00:47:20.134Z,99920.75
2023-11-30T00:48:22.218Z,99925.63
2023-11-30T00:49:24.344Z,99921.00
2023-11-30T00:50:26.324Z,99924.78
2023-11-30T00:51:30.673Z,99927.78
2023-11-30T00:52:32.661Z,99927.41
2023-11-30T00:53:34.634Z,99930.75
2023-11-30T00:54:36.638Z,99925.50
2023-11-30T00:55:38.632Z,99931.44
2023-11-30T00:56:40.600Z,99934.81
2023-11-30T00:57:42.706Z,99925.13
2023-11-30T00:58:44.744Z,99932.19
2023-11-30T00:59:46.720Z,99936.81
2023-11-30T01:00:48.706Z,99934.06
2023-11-30T01:01:50.757Z,99934.53
2023-11-30T01:02:52.843Z,99931.78
2023-11-30T01:03:54.921Z,99936.44
2023-11-30T01:04:56.952Z,99929.91
2023-11-30T01:05:58.978Z,99935.97
2023-11-30T01:07:00.972Z,99940.44
2023-11-30T01:08:02.945Z,99941.47
2023-11-30T01:09:05.871Z,99939.56
2023-11-30T01:10:08.191Z,99940.91
2023-11-30T01:11:10.170Z,99936.69
2023-11-30T01:12:12.472Z,99941.94
2023-11-30T01:13:14.486Z,99941.59
2023-11-30T01:14:17.067Z,99939.06
2023-11-30T01:15:19.439Z,99946.47
2023-11-30T01:16:21.531Z,99953.03
2023-11-30T01:17:24.104Z,99945.41
2023-11-30T01:18:26.276Z,99948.75
2023-11-30T01:19:28.326Z,99950.44
2023-11-30T01:20:30.775Z,99961.66
2023-11-30T01:21:32.754Z,99965.22
2023-11-30T01:22:34.745Z,99963.56
2023-11-30T01:23:36.729Z,99959.28
2023-11-30T01:24:38.835Z,99963.56
2023-11-30T01:25:40.820Z,99964.66
2023-11-30T01:26:42.840Z,99966.16
2023-11-30T01:27:44.938Z,99968.56
2023-11-30T01:28:46.953Z,99970.47
2023-11-30T01:29:48.984Z,99962.81
2023-11-30T01:30:51.067Z,99966.63
2023-11-30T01:31:53.127Z,99972.59
2023-11-30T01:32:55.183Z,99969.03
2023-11-30T01:33:57.264Z,99972.81
2023-11-30T01:34:59.237Z,99974.13
2023-11-30T01:36:01.334Z,99972.44
2023-11-30T01:37:03.351Z,99971.84
2023-11-30T01:38:05.345Z,99970.16
2023-11-30T01:39:07.414Z,99969.81
2023-11-30T01:40:10.300Z,99972.91
2023-11-30T01:41:12.342Z,99966.59
2023-11-30T01:42:14.379Z,99960.69
2023-11-30T01:43:18.388Z,99966.19
2023-11-30T01:44:20.381Z,99970.03
2023-11-30T01:45:22.378Z,99966.66
2023-11-30T01:46:24.481Z,99972.41
2023-11-30T01:47:26.602Z,99967.75
2023-11-30T01:48:28.678Z,99970.94
2023-11-30T01:49:30.723Z,99972.00
2023-11-30T01:50:33.504Z,99968.06
2023-11-30T01:51:36.640Z,99968.66
2023-11-30T01:52:38.987Z,99976.91
2023-11-30T01:53:41.322Z,99981.78
2023-11-30T01:54:43.341Z,99972.72
2023-11-30T01:55:46.242Z,99968.28
2023-11-30T01:56:48.705Z,99973.75
2023-11-30T01:57:50.951Z,99970.19
2023-11-30T01:58:53.570Z,99966.97
2023-11-30T01:59:56.466Z,99968.53
2023-11-30T02:01:00.038Z,99966.38
2023-11-30T02:02:02.297Z,99970.19
2023-11-30T02:03:04.659Z,99961.94
2023-11-30T02:04:16.330Z,99973.19
2023-11-30T02:05:18.351Z,99969.13
2023-11-30T02:06:20.443Z,99966.81
2023-11-30T02:07:22.541Z,99967.44
2023-11-30T02:08:24.518Z,99967.69
2023-11-30T02:09:26.546Z,99968.53
2023-11-30T02:10:28.635Z,99964.00
2023-11-30T02:11:31.389Z,99961.88
2023-11-30T02:12:33.413Z,99958.88
2023-11-30T02:13:35.459Z,99965.47
2023-11-30T02:14:37.614Z,99957.84
2023-11-30T02:15:39.627Z,99963.44
2023-11-30T02:16:41.652Z,99964.31
2023-11-30T02:17:46.081Z,99956.91
2023-11-30T02:18:48.200Z,99961.31
2023-11-30T02:19:50.231Z,99959.19
2023-11-30T02:20:52.297Z,99961.94
2023-11-30T02:21:54.310Z,99970.38
2023-11-30T02:22:56.297Z,99957.72
2023-11-30T02:23:58.300Z,99964.06
2023-11-30T02:25:01.064Z,99962.75
2023-11-30T02:26:03.083Z,99962.75
2023-11-30T02:27:05.125Z,99957.28
2023-11-30T02:28:07.107Z,99956.66
2023-11-30T02:29:09.094Z,99963.84
2023-11-30T02:30:13.061Z,99963.59
2023-11-30T02:31:15.092Z,99959.19
2023-11-30T02:32:17.088Z,99968.47
2023-11-30T02:33:19.226Z,99966.66
2023-11-30T02:34:21.289Z,99969.03
2023-11-30T02:35:23.827Z,99968.66
2023-11-30T02:36:25.824Z,99969.72
2023-11-30T02:37:27.808Z,99966.59
2023-11-30T02:38:29.785Z,99966.38
2023-11-30T02:39:31.902Z,99968.66
2023-11-30T02:40:33.905Z,99966.97
2023-11-30T02:41:35.875Z,99964.22
2023-11-30T02:42:37.842Z,99968.06
2023-11-30T02:43:39.830Z,99966.75
2023-11-30T02:44:41.798Z,99962.94
2023-11-30T02:45:43.789Z,99971.16
2023-11-30T02:46:45.794Z,99970.56
2023-11-30T02:47:47.809Z,99971.88
2023-11-30T02:48:49.995Z,99970.81
2023-11-30T02:49:52.013Z,99975.47
2023-11-30T02:50:54.013Z,99976.75
2023-11-30T02:51:57.472Z,99967.91
2023-11-30T02:52:59.662Z,99974.69
2023-11-30T02:54:01.642Z,99977.44
2023-11-30T02:55:03.845Z,99978.72
2023-11-30T02:56:06.242Z,99972.19
2023-11-30T02:57:08.277Z,99977.22
2023-11-30T02:58:10.282Z,99970.66
2023-11-30T02:59:12.299Z,99969.56
2023-11-30T03:00:14.631Z,99967.91
2023-11-30T03:01:16.708Z,99978.06
2023-11-30T03:02:18.863Z,99974.22
2023-11-30T03:03:22.095Z,99969.56
2023-11-30T03:04:24.174Z,99956.44
2023-11-30T03:05:26.156Z,99962.78
2023-11-30T03:06:28.196Z,99956.00
2023-11-30T03:07:30.192Z,99962.09
2023-11-30T03:08:32.201Z,99958.28
2023-11-30T03:09:34.960Z,99964.38
2023-11-30T03:10:36.996Z,99955.31
2023-11-30T03:11:40.161Z,99955.09
2023-11-30T03:12:42.182Z,99967.75
2023-11-30T03:13:44.182Z,99953.41
2023-11-30T03:14:47.180Z,99959.72
2023-11-30T03:15:49.213Z,99957.38
2023-11-30T03:16:51.254Z,99954.84
2023-11-30T03:17:53.301Z,99955.69
2023-11-30T03:19:10.183Z,99955.47
2023-11-30T03:20:17.779Z,99949.13
2023-11-30T03:21:20.527Z,99960.13
2023-11-30T03:22:22.610Z,99947.44
2023-11-30T03:23:24.585Z,99956.50
2023-11-30T03:24:26.666Z,99950.19
2023-11-30T03:25:28.794Z,99952.34
2023-11-30T03:26:30.760Z,99947.91
2023-11-30T03:27:32.784Z,99946.09
2023-11-30T03:28:34.811Z,99946.56
2023-11-30T03:29:36.830Z,99948.47
2023-11-30T03:30:38.837Z,99946.78
2023-11-30T03:31:41.435Z,99953.34
2023-11-30T03:32:43.615Z,99948.91
2023-11-30T03:33:45.653Z,99945.94
2023-11-30T03:34:47.676Z,99950.59
2023-11-30T03:35:51.754Z,99952.72
2023-11-30T03:36:53.889Z,99946.41
2023-11-30T03:37:55.911Z,99944.72
2023-11-30T03:38:57.942Z,99946.88
2023-11-30T03:39:59.937Z,99946.03
2023-11-30T03:41:01.955Z,99948.16
2023-11-30T03:42:04.247Z,99945.06
2023-11-30T03:43:06.256Z,99943.59
2023-11-30T03:44:08.276Z,99935.81
2023-11-30T03:45:10.293Z,99947.03
2023-11-30T03:46:12.314Z,99941.53
2023-11-30T03:47:14.316Z,99942.59
2023-11-30T03:48:16.600Z,99942.81
2023-11-30T03:49:18.688Z,99939.25
2023-11-30T03:50:20.680Z,99940.91
2023-11-30T03:51:22.946Z,99941.16
2023-11-30T03:52:24.984Z,99944.13
2023-11-30T03:53:26.979Z,99938.00
2023-11-30T03:54:29.020Z,99938.00
2023-11-30T03:55:31.040Z,99937.19
2023-11-30T03:56:33.530Z,99943.50
2023-11-30T03:57:35.612Z,99936.56
2023-11-30T03:58:37.615Z,99941.22
2023-11-30T03:59:40.185Z,99939.78
2023-11-30T04:00:42.171Z,99940.22
2023-11-30T04:01:44.244Z,99937.72
2023-11-30T04:02:46.368Z,99936.03
2023-11-30T04:03:48.384Z,99938.19
2023-11-30T04:04:50.383Z,99941.97
2023-11-30T04:05:52.375Z,99938.03
2023-11-30T04:06:54.383Z,99937.88
2023-11-30T04:07:56.369Z,99938.34
2023-11-30T04:09:00.420Z,99937.94
2023-11-30T04:10:02.461Z,99945.78
2023-11-30T04:11:04.599Z,99942.66
2023-11-30T04:12:06.917Z,99945.03
2023-11-30T04:13:08.937Z,99943.41
2023-11-30T04:14:10.904Z,99946.59
2023-11-30T04:15:12.942Z,99951.22
2023-11-30T04:16:16.365Z,99947.06
2023-11-30T04:17:18.400Z,99946.66
2023-11-30T04:18:20.439Z,99955.31
2023-11-30T04:19:22.546Z,99949.00
2023-11-30T04:20:24.536Z,99949.63
2023-11-30T04:21:26.547Z,99950.47
2023-11-30T04:22:28.577Z,99943.91
2023-11-30T04:23:30.535Z,99958.44
2023-11-30T04:24:32.580Z,99952.13
2023-11-30T04:25:34.634Z,99949.63
2023-11-30T04:26:36.946Z,99947.72
2023-11-30T04:27:38.944Z,99946.06
2023-11-30T04:28:40.908Z,99949.84
2023-11-30T04:29:42.893Z,99943.91
2023-11-30T04:30:45.018Z,99943.69
2023-11-30T04:31:47.102Z,99944.75
2023-11-30T04:32:49.089Z,99949.63
2023-11-30T04:33:51.140Z,99948.81
2023-11-30T04:34:53.146Z,99948.19
2023-11-30T04:35:55.181Z,99945.66
2023-11-30T04:36:57.568Z,99943.97
2023-11-30T04:37:59.565Z,99940.63
2023-11-30T04:39:01.564Z,99945.25
2023-11-30T04:40:04.223Z,99942.53
2023-11-30T04:41:06.510Z,99942.53
2023-11-30T04:42:08.500Z,99946.72
2023-11-30T04:43:10.513Z,99950.75
2023-11-30T04:44:12.563Z,99944.66
2023-11-30T04:45:14.629Z,99942.16
2023-11-30T04:46:16.714Z,99947.63
2023-11-30T04:47:18.733Z,99944.03
2023-11-30T04:48:20.735Z,99937.94
2023-11-30T04:49:22.750Z,99948.50
2023-11-30T04:50:24.721Z,99958.00
2023-11-30T04:51:27.013Z,99947.50
2023-11-30T04:52:29.053Z,99949.03
2023-11-30T04:53:31.168Z,99954.50
2023-11-30T04:54:33.800Z,99953.25
2023-11-30T04:55:36.469Z,99944.19
2023-11-30T04:56:38.730Z,99954.31
2023-11-30T04:57:40.748Z,99956.22
2023-11-30T04:58:42.728Z,99953.09
2023-11-30T04:59:46.367Z,99952.47
2023-11-30T05:00:49.049Z,99945.53
2023-11-30T05:01:51.183Z,99953.13
2023-11-30T05:02:56.757Z,99948.31
2023-11-30T05:03:59.235Z,99951.75
2023-11-30T05:05:01.445Z,99955.13
2023-11-30T05:06:03.574Z,99958.31
2023-11-30T05:07:05.612Z,99955.78
2023-11-30T05:08:07.592Z,99958.59
2023-11-30T05:09:09.621Z,99957.56
2023-11-30T05:10:11.734Z,99965.16
2023-11-30T05:11:13.727Z,99959.91
2023-11-30T05:12:16.273Z,99957.19
2023-11-30T05:13:18.288Z,99963.47
2023-11-30T05:14:20.280Z,99959.91
2023-11-30T05:15:22.302Z,99962.22
2023-11-30T05:16:24.336Z,99956.34
2023-11-30T05:17:26.374Z,99959.97
2023-11-30T05:18:28.373Z,99957.69
2023-11-30T05:19:30.374Z,99968.00
2023-11-30T05:20:32.610Z,99963.81
2023-11-30T05:21:34.622Z,99965.53
2023-11-30T05:22:36.611Z,99968.69
2023-11-30T05:23:38.616Z,99967.44
2023-11-30T05:24:40.623Z,99970.00
2023-11-30T05:25:43.345Z,99961.59
2023-11-30T05:26:45.345Z,99963.09
2023-11-30T05:27:47.493Z,99972.56
2023-11-30T05:28:49.451Z,99969.44
2023-11-30T05:29:51.431Z,99967.53
2023-11-30T05:30:54.031Z,99973.81
2023-11-30T05:31:56.570Z,99967.91
2023-11-30T05:32:58.969Z,99972.34
2023-11-30T05:34:01.037Z,99971.28
2023-11-30T05:35:03.090Z,99975.94
2023-11-30T05:36:05.616Z,99975.09
2023-11-30T05:37:08.093Z,99979.94
2023-11-30T05:38:10.052Z,99980.56
2023-11-30T05:39:12.081Z,99975.94
2023-11-30T05:40:14.127Z,99976.56
2023-11-30T05:41:17.819Z,99984.53
2023-11-30T05:42:19.842Z,99980.31
2023-11-30T05:43:22.004Z,99982.63
2023-11-30T05:44:24.005Z,99979.44
2023-11-30T05:45:28.419Z,99969.56
2023-11-30T05:46:30.923Z,99979.44
2023-11-30T05:47:32.905Z,99973.97
2023-11-30T05:48:35.086Z,99976.72
2023-11-30T05:49:37.130Z,99977.56
2023-11-30T05:50:39.094Z,99976.09
2023-11-30T05:51:41.244Z,99978.22
2023-11-30T05:52:43.245Z,99985.16
2023-11-30T05:53:45.224Z,99981.13
2023-11-30T05:54:47.257Z,99983.44
2023-11-30T05:55:49.314Z,99985.13
2023-11-30T05:56:51.280Z,99988.94
2023-11-30T05:57:53.268Z,99981.75
2023-11-30T05:58:55.252Z,99995.25
2023-11-30T05:59:57.247Z,99997.97
2023-11-30T06:00:59.373Z,99991.44
2023-11-30T06:02:02.626Z,99989.53
2023-11-30T06:03:07.978Z,99993.34
2023-11-30T06:04:11.015Z,99996.06
2023-11-30T06:05:13.180Z,99994.41
2023-11-30T06:06:15.382Z,99993.53
2023-11-30T06:07:17.367Z,99991.88
2023-11-30T06:08:19.355Z,99997.34
2023-11-30T06:09:21.377Z,100003.44
2023-11-30T06:10:23.391Z,100000.91
2023-11-30T06:11:25.382Z,99996.50
2023-11-30T06:12:27.688Z,99992.31
2023-11-30T06:13:29.758Z,99992.31
2023-11-30T06:14:31.798Z,99995.66
2023-11-30T06:15:33.793Z,99997.34
2023-11-30T06:16:35.776Z,99989.13
2023-11-30T06:17:37.979Z,99995.66
2023-11-30T06:18:40.108Z,99993.13
2023-11-30T06:19:42.204Z,99988.50
2023-11-30T06:20:44.176Z,99993.97
2023-11-30T06:21:46.145Z,99986.00
2023-11-30T06:22:48.137Z,99986.84
2023-11-30T06:23:50.201Z,99993.56
2023-11-30T06:24:52.169Z,99988.09
2023-11-30T06:25:54.160Z,99990.22
2023-11-30T06:26:57.053Z,99991.72
2023-11-30T06:27:59.640Z,99990.00
2023-11-30T06:29:01.605Z,99993.81
2023-11-30T06:30:04.151Z,99987.91
2023-11-30T06:31:06.553Z,99994.66
2023-11-30T06:32:08.560Z,99994.44
2023-11-30T06:33:10.639Z,99989.63
2023-11-30T06:34:12.668Z,100000.56
2023-11-30T06:35:14.658Z,99997.41
2023-11-30T06:36:17.108Z,100002.06
2023-11-30T06:37:19.101Z,100004.16
2023-11-30T06:38:21.087Z,100007.72
2023-11-30T06:39:23.106Z,100002.06
2023-11-30T06:40:25.168Z,100006.66
2023-11-30T06:41:27.165Z,100006.06
2023-11-30T06:42:29.886Z,100006.25
2023-11-30T06:43:31.989Z,100009.22
2023-11-30T06:44:34.003Z,100002.06
2023-11-30T06:45:36.113Z,99999.31
2023-11-30T06:46:40.172Z,100002.91
2023-11-30T06:47:42.179Z,100004.41
2023-11-30T06:48:44.639Z,100008.16
2023-11-30T06:49:48.345Z,99995.94
2023-11-30T06:50:50.349Z,100003.31
2023-11-30T06:51:53.319Z,100006.28
2023-11-30T06:52:55.550Z,100003.75
2023-11-30T06:53:58.059Z,100009.66
2023-11-30T06:55:00.146Z,99999.56
2023-11-30T06:56:02.130Z,100014.69
2023-11-30T06:57:04.329Z,100013.88
2023-11-30T06:58:07.149Z,100017.03
2023-11-30T06:59:09.125Z,100007.13
2023-11-30T07:00:14.144Z,100013.91
2023-11-30T07:01:17.278Z,100015.75
2023-11-30T07:02:19.333Z,100013.91
2023-11-30T07:03:21.409Z,100015.34
2023-11-30T07:04:23.690Z,100014.31
2023-11-30T07:05:25.756Z,100019.97
2023-11-30T07:06:27.761Z,100017.44
2023-11-30T07:07:34.228Z,100011.78
2023-11-30T07:08:38.710Z,100017.25
2023-11-30T07:09:40.804Z,100013.63
2023-11-30T07:10:43.212Z,100015.34
2023-11-30T07:11:45.236Z,100024.59
2023-11-30T07:12:47.486Z,100017.84
2023-11-30T07:13:49.492Z,100017.84
2023-11-30T07:14:51.966Z,100021.44
2023-11-30T07:15:54.217Z,100013.84
2023-11-30T07:16:56.275Z,100016.38
2023-11-30T07:17:58.309Z,100020.78
2023-11-30T07:19:00.631Z,100026.25
2023-11-30T07:20:02.664Z,100020.78
2023-11-30T07:21:05.362Z,100020.78
2023-11-30T07:22:07.401Z,100019.09
2023-11-30T07:23:11.421Z,100020.19
2023-11-30T07:24:13.651Z,100026.47
2023-11-30T07:25:15.679Z,100032.56
2023-11-30T07:26:17.840Z,100023.09
2023-11-30T07:27:20.522Z,100023.72
2023-11-30T07:28:22.547Z,100021.63
2023-11-30T07:29:27.053Z,100022.44
2023-11-30T07:30:30.144Z,100017.19
2023-11-30T07:31:32.307Z,100024.56
2023-11-30T07:32:34.337Z,100024.78
2023-11-30T07:33:37.005Z,100024.34
2023-11-30T07:34:39.012Z,100032.78
2023-11-30T07:35:41.684Z,100026.47
2023-11-30T07:36:43.665Z,100030.88
2023-11-30T07:37:45.668Z,100037.81
2023-11-30T07:38:48.048Z,100038.66
2023-11-30T07:39:50.292Z,100037.19
2023-11-30T07:40:52.262Z,100040.34
2023-11-30T07:41:54.941Z,100036.97
2023-11-30T07:42:57.735Z,100041.16
2023-11-30T07:43:59.919Z,100035.25
2023-11-30T07:45:05.082Z,100043.47
2023-11-30T07:46:07.739Z,100045.78
2023-11-30T07:47:09.735Z,100052.09
2023-11-30T07:48:12.058Z,100051.88
2023-11-30T07:49:14.429Z,100053.31
2023-11-30T07:50:17.198Z,100056.69
2023-11-30T07:51:20.145Z,100053.75
2023-11-30T07:52:22.152Z,100050.19
2023-11-30T07:53:26.999Z,100049.09
2023-11-30T07:54:29.006Z,100050.78
2023-11-30T07:55:31.095Z,100054.97
2023-11-30T07:56:33.089Z,100050.56
2023-11-30T07:57:35.296Z,100050.56
2023-11-30T07:58:37.468Z,100050.34
2023-11-30T07:59:39.448Z,100059.63
2023-11-30T08:00:41.456Z,100055.84
2023-11-30T08:01:43.506Z,100053.31
2023-11-30T08:02:45.501Z,100055.22
2023-11-30T08:03:49.213Z,100059.44
2023-11-30T08:04:51.319Z,100056.06
2023-11-30T08:05:53.342Z,100057.75
2023-11-30T08:06:56.281Z,100060.91
2023-11-30T08:07:58.281Z,100058.34
2023-11-30T08:09:00.408Z,100061.50
2023-11-30T08:10:02.408Z,100051.38
2023-11-30T08:11:05.135Z,100050.97
2023-11-30T08:12:07.320Z,100054.31
2023-11-30T08:13:11.896Z,100050.53
2023-11-30T08:14:14.034Z,100050.09
2023-11-30T08:15:16.254Z,100048.59
2023-11-30T08:16:18.334Z,100056.38
2023-11-30T08:17:20.347Z,100047.09
2023-11-30T08:18:25.778Z,100049.84
2023-11-30T08:19:27.889Z,100046.66
2023-11-30T08:20:29.982Z,100047.75
2023-11-30T08:21:32.057Z,100063.72
2023-11-30T08:22:34.034Z,100052.78
2023-11-30T08:23:37.571Z,100058.84
2023-11-30T08:24:39.857Z,100058.41
2023-11-30T08:25:42.274Z,100056.09
2023-11-30T08:26:44.282Z,100061.97
2023-11-30T08:27:50.921Z,100060.69
2023-11-30T08:28:54.984Z,100060.06
2023-11-30T08:29:56.965Z,100064.03
2023-11-30T08:31:02.283Z,100058.53
2023-11-30T08:32:04.660Z,100055.16
2023-11-30T08:33:07.154Z,100056.88
2023-11-30T08:34:10.045Z,100052.44
2023-11-30T08:35:12.377Z,100055.16
2023-11-30T08:36:14.386Z,100050.13
2023-11-30T08:37:16.393Z,100048.22
2023-11-30T08:38:18.406Z,100052.41
2023-11-30T08:39:24.577Z,100049.22
2023-11-30T08:40:26.735Z,100055.09
2023-11-30T08:41:28.713Z,100053.63
2023-11-30T08:42:31.947Z,100056.75
2023-11-30T08:43:33.978Z,100051.66
2023-11-30T08:44:36.720Z,100050.63
2023-11-30T08:45:39.012Z,100053.94
2023-11-30T08:46:41.568Z,100049.94
2023-11-30T08:47:44.302Z,100054.38
2023-11-30T08:48:46.525Z,100054.38
2023-11-30T08:49:48.545Z,100058.16
2023-11-30T08:50:50.536Z,100049.09
2023-11-30T08:51:52.981Z,100058.16
2023-11-30T08:52:55.071Z,100052.66
2023-11-30T08:53:57.068Z,100046.13
2023-11-30T08:54:59.044Z,100049.47
2023-11-30T08:56:01.018Z,100046.53
2023-11-30T08:57:05.139Z,100052.63
2023-11-30T08:58:07.152Z,100047.16
2023-11-30T08:59:09.664Z,100044.81
2023-11-30T09:00:13.190Z,100054.50
2023-11-30T09:01:15.220Z,100052.13
2023-11-30T09:02:17.416Z,100054.66
2023-11-30T09:03:19.512Z,100053.38
2023-11-30T09:04:21.549Z,100053.75
2023-11-30T09:05:24.821Z,100044.25
2023-11-30T09:06:26.914Z,100053.72
2023-11-30T09:07:29.128Z,100054.13
2023-11-30T09:08:31.176Z,100057.47
2023-11-30T09:09:34.293Z,100055.56
2023-11-30T09:10:36.302Z,100060.59
2023-11-30T09:11:38.299Z,100059.53
2023-11-30T09:12:40.385Z,100060.38
2023-11-30T09:13:42.415Z,100059.09
2023-11-30T09:14:44.375Z,100060.53
2023-11-30T09:15:46.489Z,100054.41
2023-11-30T09:16:48.542Z,100055.59
2023-11-30T09:17:50.814Z,100056.22
2023-11-30T09:18:55.309Z,100052.00
2023-11-30T09:19:57.442Z,100052.38
2023-11-30T09:21:00.590Z,100054.03
2023-11-30T09:22:02.653Z,100053.00
2023-11-30T09:23:07.270Z,100047.25
2023-11-30T09:24:09.507Z,100050.41
2023-11-30T09:25:12.882Z,100056.94
2023-11-30T09:26:14.959Z,100047.66
2023-11-30T09:27:17.051Z,100049.53
2023-11-30T09:28:19.665Z,100046.22
2023-11-30T09:29:21.675Z,100047.66
2023-11-30T09:30:23.711Z,100042.38
2023-11-30T09:31:26.394Z,100048.25
2023-11-30T09:32:28.419Z,100047.22
2023-11-30T09:33:30.556Z,100041.72
2023-11-30T09:34:32.560Z,100049.50
2023-11-30T09:35:34.546Z,100041.03
2023-11-30T09:36:37.551Z,100040.81
2023-11-30T09:37:39.546Z,100043.31
2023-11-30T09:38:42.107Z,100041.44
2023-11-30T09:39:45.595Z,100036.53
2023-11-30T09:40:47.730Z,100031.66
2023-11-30T09:41:49.877Z,100031.44
2023-11-30T09:42:51.925Z,100031.19
2023-11-30T09:43:54.576Z,100028.91
2023-11-30T09:45:00.145Z,100026.63
2023-11-30T09:46:02.716Z,100030.22
2023-11-30T09:47:04.706Z,100039.91
2023-11-30T09:48:06.822Z,100035.25
2023-11-30T09:49:10.224Z,100029.28
2023-11-30T09:50:12.369Z,100028.00
2023-11-30T09:51:20.678Z,100032.19
2023-11-30T09:52:22.849Z,100029.00
2023-11-30T09:53:24.957Z,100024.94
2023-11-30T09:54:27.021Z,100020.91
2023-11-30T09:55:29.608Z,100025.34
2023-11-30T09:56:32.264Z,100032.88
2023-11-30T09:57:34.274Z,100024.28
2023-11-30T09:58:38.568Z,100021.75
2023-11-30T09:59:40.589Z,100024.72
2023-11-30T10:00:42.659Z,100025.56
2023-11-30T10:01:44.895Z,100025.34
2023-11-30T10:02:54.540Z,100023.44
2023-11-30T10:03:56.731Z,100024.06
2023-11-30T10:04:59.042Z,100021.91
2023-11-30T10:06:02.205Z,100021.91
2023-11-30T10:07:04.219Z,100020.22
2023-11-30T10:08:06.207Z,100017.69
2023-11-30T10:09:13.961Z,100024.66
2023-11-30T10:10:16.015Z,100019.63
2023-11-30T10:11:18.269Z,100021.53
2023-11-30T10:12:21.245Z,100021.16
2023-11-30T10:13:23.321Z,100022.19
2023-11-30T10:14:26.247Z,100020.91
2023-11-30T10:15:28.298Z,100021.53
2023-11-30T10:16:30.320Z,100021.53
2023-11-30T10:17:32.565Z,100020.44
2023-11-30T10:18:35.420Z,100015.41
2023-11-30T10:19:38.435Z,100021.31
2023-11-30T10:20:40.498Z,100013.28
2023-11-30T10:21:43.096Z,100012.44
2023-11-30T10:22:45.255Z,100009.09
2023-11-30T10:23:47.630Z,100009.91
2023-11-30T10:24:52.868Z,100009.72
2023-11-30T10:25:54.965Z,100006.97
2023-11-30T10:27:00.367Z,100009.72
2023-11-30T10:28:03.481Z,100007.59
2023-11-30T10:29:07.681Z,100005.66
2023-11-30T10:30:12.723Z,99999.94
2023-11-30T10:31:18.596Z,100001.63
2023-11-30T10:32:23.169Z,99998.16
2023-11-30T10:33:25.929Z,99996.66
2023-11-30T10:34:43.727Z,99991.38
2023-11-30T10:35:48.936Z,99999.16
2023-11-30T10:36:51.420Z,99991.38
2023-11-30T10:37:54.610Z,99995.34
2023-11-30T10:39:02.474Z,99994.53
2023-11-30T10:40:10.519Z,99995.56
2023-11-30T10:41:19.546Z,99995.56
2023-11-30T10:42:24.350Z,99994.28
2023-11-30T10:43:26.825Z,99989.63
2023-11-30T10:44:30.852Z,99993.81
2023-11-30T10:45:37.039Z,99990.84
2023-11-30T10:46:39.501Z,99992.88
2023-11-30T10:47:42.786Z,99988.84
2023-11-30T10:48:44.845Z,99989.44
2023-11-30T10:49:49.743Z,99983.13
2023-11-30T10:50:53.814Z,99981.88
2023-11-30T10:52:01.037Z,99982.75
2023-11-30T10:53:16.269Z,99980.84
2023-11-30T10:54:40.732Z,99979.16
2023-11-30T10:55:43.299Z,99984.78
2023-11-30T10:56:45.521Z,99985.41
2023-11-30T10:57:47.823Z,99982.66
2023-11-30T10:58:49.919Z,99983.13
2023-11-30T10:59:59.600Z,99981.00
2023-11-30T11:01:01.856Z,99978.25
2023-11-30T11:02:06.771Z,99981.00
2023-11-30T11:03:09.739Z,99973.31
2023-11-30T11:04:15.605Z,99983.97
2023-11-30T11:05:21.886Z,99977.16
2023-11-30T11:06:27.887Z,99980.13
2023-11-30T11:07:30.293Z,99971.66
2023-11-30T11:08:32.324Z,99970.84
2023-11-30T11:09:52.717Z,99962.59
2023-11-30T11:10:54.626Z,99966.78
2023-11-30T11:12:02.220Z,99966.53
2023-11-30T11:13:04.215Z,99963.56
2023-11-30T11:14:06.299Z,99965.47
2023-11-30T11:15:15.527Z,99970.97
2023-11-30T11:16:19.131Z,99962.72
2023-11-30T11:17:22.158Z,99955.06
2023-11-30T11:18:30.401Z,99957.38
2023-11-30T11:19:35.614Z,99957.38
2023-11-30T11:20:37.825Z,99957.13
2023-11-30T11:21:40.973Z,99951.63
2023-11-30T11:22:43.908Z,99948.88
2023-11-30T11:23:45.956Z,99946.13
2023-11-30T11:24:48.528Z,99949.72
2023-11-30T11:25:51.152Z,99947.22
2023-11-30T11:27:00.485Z,99938.97
2023-11-30T11:28:02.499Z,99944.47
2023-11-30T11:29:06.082Z,99938.16
2023-11-30T11:30:09.782Z,99945.31
2023-11-30T11:31:12.179Z,99948.28
2023-11-30T11:32:14.710Z,99938.16
2023-11-30T11:33:18.667Z,99941.94
2023-11-30T11:34:20.717Z,99940.44
2023-11-30T11:35:22.708Z,99939.94
2023-11-30T11:36:26.963Z,99941.41
2023-11-30T11:37:29.203Z,99944.97
2023-11-30T11:38:31.623Z,99934.59
2023-11-30T11:39:33.822Z,99941.97
2023-11-30T11:40:39.759Z,99938.41
2023-11-30T11:41:41.766Z,99937.34
2023-11-30T11:42:43.825Z,99941.41
2023-11-30T11:43:48.287Z,99935.19
2023-11-30T11:44:51.538Z,99929.69
2023-11-30T11:45:53.669Z,99926.09
2023-11-30T11:46:55.695Z,99930.75
2023-11-30T11:47:57.712Z,99930.53
2023-11-30T11:48:59.699Z,99928.84
2023-11-30T11:50:01.691Z,99933.28
2023-11-30T11:51:03.894Z,99929.69
2023-11-30T11:52:05.882Z,99929.25
2023-11-30T11:53:07.935Z,99923.47
2023-11-30T11:54:20.070Z,99913.78
2023-11-30T11:55:23.645Z,99916.91
2023-11-30T11:56:25.620Z,99918.00
2023-11-30T11:57:38.260Z,99920.13
2023-11-30T11:58:46.529Z,99907.00
2023-11-30T11:59:48.497Z,99911.78
2023-11-30T12:00:54.823Z,99906.28
2023-11-30T12:01:59.465Z,99911.31
2023-11-30T12:03:06.709Z,99908.31
2023-11-30T12:04:08.840Z,99909.19
2023-11-30T12:05:15.462Z,99901.75
2023-11-30T12:06:28.164Z,99902.25
2023-11-30T12:07:30.199Z,99901.97
2023-11-30T12:08:36.080Z,99904.38
2023-11-30T12:09:38.340Z,99903.28